Time;durP1;ratioP1;P1;durP2;ratioP2;P2;SDS_P1;SDS_P2;PMS_P1;PMS_P2;Temp;Humidity;BMP_temperature;BMP_pressure;BME280_temperature;BME280_humidity;BME280_pressure;Samples;Min_cycle;Max_cycle;Signal;HPM_P1;HPM_P2
2023/09/06 00:00:17;;;;;;;1.33;1.23;;;;;;;;;;4970856;28;60382;-74
2023/09/06 00:02:42;;;;;;;1.30;1.20;;;;;;;;;;4964289;28;59842;-74
2023/09/06 00:05:07;;;;;;;1.33;1.23;;;;;;;;;;4967284;28;59426;-74
2023/09/06 00:07:32;;;;;;;1.20;1.10;;;;;;;;;;4965413;28;59575;-73
2023/09/06 00:09:58;;;;;;;2.27;1.20;;;;;;;;;;4972109;28;59350;-74
2023/09/06 00:12:23;;;;;;;1.00;1.00;;;;;;;;;;4969653;28;59772;-74
2023/09/06 00:14:48;;;;;;;1.50;0.97;;;;;;;;;;4967000;28;59200;-76
2023/09/06 00:17:13;;;;;;;1.10;0.97;;;;;;;;;;4964115;28;59323;-73
2023/09/06 00:19:38;;;;;;;1.20;1.20;;;;;;;;;;4964916;28;60227;-76
2023/09/06 00:22:03;;;;;;;1.10;1.00;;;;;;;;;;4966189;28;59395;-74
2023/09/06 00:24:31;;;;;;;1.27;1.10;;;;;;;;;;4954270;28;59229;-74
2023/09/06 00:26:58;;;;;;;0.90;0.87;;;;;;;;;;4969740;28;60554;-77
2023/09/06 00:29:23;;;;;;;0.70;0.70;;;;;;;;;;4970557;28;59138;-74
2023/09/06 00:31:48;;;;;;;1.60;1.50;;;;;;;;;;4974149;28;59108;-76
2023/09/06 00:34:14;;;;;;;0.93;0.87;;;;;;;;;;4966709;28;59917;-68
2023/09/06 00:36:39;;;;;;;0.95;0.93;;;;;;;;;;4970597;28;59422;-72
2023/09/06 00:39:05;;;;;;;1.17;1.15;;;;;;;;;;4970974;28;59297;-71
2023/09/06 00:41:30;;;;;;;1.00;1.00;;;;;;;;;;4969887;28;59889;-72
2023/09/06 00:43:56;;;;;;;0.90;0.90;;;;;;;;;;4971013;28;59269;-71
2023/09/06 00:46:21;;;;;;;1.20;1.10;;;;;;;;;;4968427;28;59338;-69
2023/09/06 00:48:50;;;;;;;0.70;0.70;;;;;;;;;;4969446;28;59490;-71
2023/09/06 00:51:15;;;;;;;1.15;1.05;;;;;;;;;;4955904;28;59871;-70
2023/09/06 00:53:40;;;;;;;0.80;0.80;;;;;;;;;;4969434;28;59165;-71
2023/09/06 00:56:08;;;;;;;1.48;1.27;;;;;;;;;;4970052;28;59252;-72
2023/09/06 00:58:34;;;;;;;0.70;0.70;;;;;;;;;;4968966;28;60055;-73
2023/09/06 01:00:59;;;;;;;1.03;0.93;;;;;;;;;;4972303;28;59378;-71
2023/09/06 01:03:24;;;;;;;0.93;0.87;;;;;;;;;;4970375;28;59153;-72
2023/09/06 01:05:52;;;;;;;0.82;0.82;;;;;;;;;;4969932;28;60148;-71
2023/09/06 01:08:28;;;;;;;0.85;0.85;;;;;;;;;;4972515;28;59248;-71
2023/09/06 01:10:54;;;;;;;0.73;0.73;;;;;;;;;;4971198;28;59282;-73
2023/09/06 01:13:19;;;;;;;0.57;0.57;;;;;;;;;;4969709;28;59232;-72
2023/09/06 01:15:45;;;;;;;0.63;0.63;;;;;;;;;;4971919;28;59228;-74
2023/09/06 01:18:11;;;;;;;1.08;1.00;;;;;;;;;;4970779;28;59906;-71
2023/09/06 01:20:44;;;;;;;0.95;0.85;;;;;;;;;;4967817;28;59369;-71
2023/09/06 01:23:16;;;;;;;1.38;0.73;;;;;;;;;;4972168;28;59336;-71
2023/09/06 01:25:42;;;;;;;0.65;0.65;;;;;;;;;;4934079;28;60120;-71
2023/09/06 01:28:07;;;;;;;0.70;0.70;;;;;;;;;;4972047;28;59323;-74
2023/09/06 01:30:32;;;;;;;0.80;0.80;;;;;;;;;;4971584;28;59298;-72
2023/09/06 01:32:57;;;;;;;0.47;0.47;;;;;;;;;;4964496;28;59960;-72
2023/09/06 01:35:22;;;;;;;0.90;0.90;;;;;;;;;;4970118;28;58530;-71
2023/09/06 01:37:50;;;;;;;0.60;0.60;;;;;;;;;;4970071;28;61088;-68
2023/09/06 01:40:17;;;;;;;0.80;0.80;;;;;;;;;;4971148;28;59383;-69
2023/09/06 01:42:42;;;;;;;0.70;0.70;;;;;;;;;;4970303;28;59332;-69
2023/09/06 01:45:08;;;;;;;0.80;0.80;;;;;;;;;;4970727;28;61496;-68
2023/09/06 01:47:33;;;;;;;0.80;0.70;;;;;;;;;;4970865;28;59338;-70
2023/09/06 01:49:58;;;;;;;0.67;0.67;;;;;;;;;;4969606;28;59548;-68
2023/09/06 01:52:23;;;;;;;0.63;0.63;;;;;;;;;;4968093;28;59237;-68
2023/09/06 01:54:48;;;;;;;0.80;0.80;;;;;;;;;;4953852;28;59372;-69
2023/09/06 01:57:13;;;;;;;0.50;0.50;;;;;;;;;;4970645;28;59945;-70
2023/09/06 01:59:39;;;;;;;0.40;0.40;;;;;;;;;;4970428;28;59800;-69
2023/09/06 02:02:04;;;;;;;0.70;0.70;;;;;;;;;;4968718;28;59260;-68
2023/09/06 02:04:29;;;;;;;1.23;1.13;;;;;;;;;;4967979;28;61277;-70
2023/09/06 02:06:54;;;;;;;0.50;0.50;;;;;;;;;;4970301;28;59351;-68
2023/09/06 02:09:19;;;;;;;0.60;0.60;;;;;;;;;;4968857;28;59490;-68
2023/09/06 02:11:45;;;;;;;0.60;0.60;;;;;;;;;;4969885;28;59443;-69
2023/09/06 02:14:10;;;;;;;0.77;0.77;;;;;;;;;;4969801;28;58886;-68
2023/09/06 02:16:35;;;;;;;0.50;0.45;;;;;;;;;;4968306;28;58542;-70
2023/09/06 02:19:00;;;;;;;0.70;0.70;;;;;;;;;;4971646;28;59246;-68
2023/09/06 02:21:25;;;;;;;0.65;0.65;;;;;;;;;;4966006;28;59271;-69
2023/09/06 02:23:50;;;;;;;0.70;0.70;;;;;;;;;;4968420;28;61077;-68
2023/09/06 02:26:16;;;;;;;0.73;0.60;;;;;;;;;;4969510;28;59554;-69
2023/09/06 02:28:41;;;;;;;0.77;0.70;;;;;;;;;;4966978;28;59247;-69
2023/09/06 02:31:07;;;;;;;0.67;0.60;;;;;;;;;;4967744;28;59513;-68
2023/09/06 02:33:32;;;;;;;0.80;0.80;;;;;;;;;;4967156;28;59552;-69
2023/09/06 02:35:57;;;;;;;0.37;0.37;;;;;;;;;;4971246;28;59220;-69
2023/09/06 02:38:23;;;;;;;0.50;0.50;;;;;;;;;;4968028;28;64483;-68
2023/09/06 02:40:48;;;;;;;0.57;0.57;;;;;;;;;;4965829;28;59234;-68
2023/09/06 02:43:14;;;;;;;0.60;0.60;;;;;;;;;;4968486;28;59502;-69
2023/09/06 02:45:39;;;;;;;0.50;0.50;;;;;;;;;;4966835;28;59294;-70
2023/09/06 02:48:12;;;;;;;0.77;0.73;;;;;;;;;;4968163;28;59498;-68
2023/09/06 02:50:37;;;;;;;0.68;0.68;;;;;;;;;;4967183;28;59553;-70
2023/09/06 02:53:03;;;;;;;0.57;0.40;;;;;;;;;;4963491;28;59378;-68
2023/09/06 02:55:28;;;;;;;0.63;0.63;;;;;;;;;;4968254;28;59248;-69
2023/09/06 02:57:55;;;;;;;0.90;0.70;;;;;;;;;;4972089;28;59289;-69
2023/09/06 03:00:26;;;;;;;0.57;0.57;;;;;;;;;;4970613;28;59355;-68
2023/09/06 03:03:05;;;;;;;0.63;0.63;;;;;;;;;;4968073;28;59439;-69
2023/09/06 03:05:30;;;;;;;0.65;0.65;;;;;;;;;;4967663;28;59086;-69
2023/09/06 03:07:57;;;;;;;0.60;0.60;;;;;;;;;;4971331;28;59448;-70
2023/09/06 03:10:23;;;;;;;0.50;0.50;;;;;;;;;;4965448;28;59251;-69
2023/09/06 03:12:54;;;;;;;0.77;0.77;;;;;;;;;;4970076;28;59193;-69
2023/09/06 03:15:22;;;;;;;1.60;0.98;;;;;;;;;;4969323;28;59438;-70
2023/09/06 03:17:47;;;;;;;0.77;0.77;;;;;;;;;;4970063;28;64125;-69
2023/09/06 03:20:20;;;;;;;0.60;0.60;;;;;;;;;;4968108;28;59279;-68
2023/09/06 03:22:46;;;;;;;0.40;0.40;;;;;;;;;;4967211;28;60297;-70
2023/09/06 03:25:14;;;;;;;1.00;0.95;;;;;;;;;;4964301;28;59561;-71
2023/09/06 03:27:39;;;;;;;0.70;0.70;;;;;;;;;;4969621;28;59267;-68
2023/09/06 03:30:06;;;;;;;1.00;0.80;;;;;;;;;;4968452;28;59282;-70
2023/09/06 03:32:32;;;;;;;0.60;0.60;;;;;;;;;;4968312;28;59338;-69
2023/09/06 03:34:57;;;;;;;0.43;0.43;;;;;;;;;;4966995;28;59318;-72
2023/09/06 03:37:23;;;;;;;0.68;0.68;;;;;;;;;;4968853;28;59320;-69
2023/09/06 03:39:53;;;;;;;0.60;0.60;;;;;;;;;;4969492;28;59224;-70
2023/09/06 03:42:18;;;;;;;0.60;0.60;;;;;;;;;;4971005;28;59199;-69
2023/09/06 03:44:46;;;;;;;0.68;0.68;;;;;;;;;;4964734;28;59324;-68
2023/09/06 03:47:14;;;;;;;0.50;0.50;;;;;;;;;;4965873;28;59314;-69
2023/09/06 03:49:40;;;;;;;0.50;0.50;;;;;;;;;;4968912;28;60466;-69
2023/09/06 03:52:06;;;;;;;1.25;0.73;;;;;;;;;;4969927;28;59319;-69
2023/09/06 03:54:34;;;;;;;0.50;0.50;;;;;;;;;;4967102;28;59301;-69
2023/09/06 03:56:59;;;;;;;;;;;;;;;;;;4973477;28;60661;-69
2023/09/06 03:59:24;;;;;;;0.57;0.57;;;;;;;;;;4972626;28;59432;-68
2023/09/06 04:01:49;;;;;;;0.65;0.65;;;;;;;;;;4969299;28;59397;-69
2023/09/06 04:04:15;;;;;;;0.77;0.77;;;;;;;;;;4968985;28;59205;-69
2023/09/06 04:06:43;;;;;;;0.70;0.70;;;;;;;;;;4971630;28;59303;-68
2023/09/06 04:09:12;;;;;;;;;;;;;;;;;;4956810;28;60204;-68
2023/09/06 04:11:37;;;;;;;1.05;0.70;;;;;;;;;;4964481;28;59376;-69
2023/09/06 04:14:03;;;;;;;0.47;0.47;;;;;;;;;;4968709;28;59287;-71
2023/09/06 04:16:28;;;;;;;0.38;0.38;;;;;;;;;;4967245;28;60461;-68
2023/09/06 04:18:54;;;;;;;1.38;0.70;;;;;;;;;;4968335;28;59276;-69
2023/09/06 04:21:20;;;;;;;0.50;0.50;;;;;;;;;;4963293;28;59323;-69
2023/09/06 04:23:45;;;;;;;0.40;0.40;;;;;;;;;;4958606;28;60297;-72
2023/09/06 04:26:10;;;;;;;0.30;0.30;;;;;;;;;;4971983;28;59216;-69
2023/09/06 04:28:35;;;;;;;0.57;0.57;;;;;;;;;;4974217;28;59533;-69
2023/09/06 04:31:03;;;;;;;1.13;1.05;;;;;;;;;;4972020;28;59233;-69
2023/09/06 04:33:29;;;;;;;0.70;0.70;;;;;;;;;;4972874;28;59295;-68
2023/09/06 04:35:54;;;;;;;0.40;0.40;;;;;;;;;;4971458;28;59207;-70
2023/09/06 04:38:19;;;;;;;0.57;0.57;;;;;;;;;;4972299;28;59236;-73
2023/09/06 04:40:46;;;;;;;0.57;0.55;;;;;;;;;;4972163;28;59295;-69
2023/09/06 04:43:11;;;;;;;1.00;0.90;;;;;;;;;;4971200;28;60225;-68
2023/09/06 04:45:40;;;;;;;0.50;0.50;;;;;;;;;;4968792;28;59388;-72
2023/09/06 04:48:05;;;;;;;0.70;0.70;;;;;;;;;;4967668;28;59829;-71
2023/09/06 04:50:30;;;;;;;1.13;0.73;;;;;;;;;;4972031;28;59493;-72
2023/09/06 04:52:56;;;;;;;3.57;0.90;;;;;;;;;;4966134;28;59246;-70
2023/09/06 04:55:21;;;;;;;1.13;1.02;;;;;;;;;;4967937;28;59409;-70
2023/09/06 04:57:47;;;;;;;1.20;1.10;;;;;;;;;;4964845;28;59312;-70
2023/09/06 05:02:41;;;;;;;0.80;0.80;;;;;;;;;;4971639;28;59921;-70
2023/09/06 05:05:06;;;;;;;0.77;0.77;;;;;;;;;;4973990;28;59357;-75
2023/09/06 05:07:32;;;;;;;1.70;0.85;;;;;;;;;;4975773;28;59312;-75
2023/09/06 05:09:58;;;;;;;1.05;0.95;;;;;;;;;;4973331;28;59259;-75
2023/09/06 05:12:23;;;;;;;0.85;0.85;;;;;;;;;;4976160;28;59266;-75
2023/09/06 05:14:48;;;;;;;1.20;1.10;;;;;;;;;;4974817;28;60209;-70
2023/09/06 05:17:13;;;;;;;0.80;0.80;;;;;;;;;;4975959;28;59475;-70
2023/09/06 05:19:38;;;;;;;0.70;0.60;;;;;;;;;;4972778;28;59174;-70
2023/09/06 05:22:04;;;;;;;0.77;0.77;;;;;;;;;;4975987;28;60097;-70
2023/09/06 05:24:29;;;;;;;0.70;0.70;;;;;;;;;;4976953;28;59340;-70
2023/09/06 05:26:54;;;;;;;0.80;0.80;;;;;;;;;;4972526;28;59260;-69
2023/09/06 05:29:19;;;;;;;1.40;1.30;;;;;;;;;;4974547;28;60121;-71
2023/09/06 05:31:44;;;;;;;1.10;0.77;;;;;;;;;;4974915;28;59250;-73
2023/09/06 05:34:09;;;;;;;0.73;0.73;;;;;;;;;;4977940;28;59766;-71
2023/09/06 05:36:35;;;;;;;0.60;0.60;;;;;;;;;;4973364;28;59478;-70
2023/09/06 05:39:00;;;;;;;0.60;0.60;;;;;;;;;;4975388;28;58466;-71
2023/09/06 05:41:25;;;;;;;0.80;0.65;;;;;;;;;;4973795;28;59294;-71
2023/09/06 05:43:50;;;;;;;0.73;0.73;;;;;;;;;;4972690;28;59259;-70
2023/09/06 05:46:15;;;;;;;1.00;1.00;;;;;;;;;;4976026;28;59097;-70
2023/09/06 05:48:40;;;;;;;0.82;0.82;;;;;;;;;;4974072;28;60036;-70
2023/09/06 05:51:05;;;;;;;0.60;0.60;;;;;;;;;;4958731;28;58729;-69
2023/09/06 05:53:31;;;;;;;1.08;0.90;;;;;;;;;;4975508;28;59490;-73
2023/09/06 05:55:57;;;;;;;1.20;0.90;;;;;;;;;;4973640;28;59698;-70
2023/09/06 05:58:23;;;;;;;0.65;0.65;;;;;;;;;;4972236;28;59230;-70
2023/09/06 06:00:50;;;;;;;1.30;1.00;;;;;;;;;;4975032;28;59380;-70
2023/09/06 06:03:18;;;;;;;0.57;0.57;;;;;;;;;;4974912;28;59081;-71
2023/09/06 06:05:43;;;;;;;1.17;0.65;;;;;;;;;;4975361;28;59168;-70
2023/09/06 06:08:08;;;;;;;0.90;0.90;;;;;;;;;;4974964;28;60682;-70
2023/09/06 06:10:34;;;;;;;0.80;0.80;;;;;;;;;;4973593;28;59292;-70
2023/09/06 06:12:59;;;;;;;0.88;0.88;;;;;;;;;;4975527;28;59176;-70
2023/09/06 06:15:25;;;;;;;1.27;0.90;;;;;;;;;;4971897;28;59266;-70
2023/09/06 06:17:50;;;;;;;1.20;0.90;;;;;;;;;;4976770;28;59249;-71
2023/09/06 06:20:17;;;;;;;0.95;0.80;;;;;;;;;;4971075;28;60847;-70
2023/09/06 06:22:43;;;;;;;0.90;0.90;;;;;;;;;;4972353;28;59339;-71
2023/09/06 06:25:09;;;;;;;1.02;0.75;;;;;;;;;;4976254;28;59217;-72
2023/09/06 06:27:36;;;;;;;0.68;0.68;;;;;;;;;;4974404;28;60236;-70
2023/09/06 06:30:01;;;;;;;1.27;0.57;;;;;;;;;;4969748;28;59364;-72
2023/09/06 06:32:26;;;;;;;0.73;0.70;;;;;;;;;;4974547;28;59329;-70
2023/09/06 06:34:54;;;;;;;1.00;0.90;;;;;;;;;;4973080;28;59369;-70
2023/09/06 06:37:20;;;;;;;1.08;0.98;;;;;;;;;;4973995;28;59272;-70
2023/09/06 06:39:45;;;;;;;0.80;0.80;;;;;;;;;;4973191;28;60425;-72
2023/09/06 06:42:10;;;;;;;0.60;0.60;;;;;;;;;;4977385;28;59339;-70
2023/09/06 06:44:35;;;;;;;0.87;0.87;;;;;;;;;;4971388;28;59403;-69
2023/09/06 06:47:00;;;;;;;0.80;0.80;;;;;;;;;;4975851;28;60249;-71
2023/09/06 06:49:26;;;;;;;0.70;0.70;;;;;;;;;;4972560;28;59993;-70
2023/09/06 06:51:51;;;;;;;0.70;0.70;;;;;;;;;;4975332;28;59212;-71
2023/09/06 06:54:16;;;;;;;0.70;0.70;;;;;;;;;;4972155;28;59306;-69
2023/09/06 06:56:41;;;;;;;1.40;1.07;;;;;;;;;;4972423;28;59132;-71
2023/09/06 06:59:09;;;;;;;0.60;0.60;;;;;;;;;;4974910;28;59341;-69
2023/09/06 07:01:35;;;;;;;0.93;0.73;;;;;;;;;;4970767;28;59311;-71
2023/09/06 07:04:00;;;;;;;0.85;0.85;;;;;;;;;;4972443;28;59204;-70
2023/09/06 07:06:26;;;;;;;0.77;0.77;;;;;;;;;;4974233;28;59197;-70
2023/09/06 07:08:52;;;;;;;2.05;0.88;;;;;;;;;;4973754;28;59500;-70
2023/09/06 07:11:21;;;;;;;0.70;0.70;;;;;;;;;;4973498;28;59235;-70
2023/09/06 07:13:47;;;;;;;1.30;1.10;;;;;;;;;;4969552;28;60117;-70
2023/09/06 07:16:13;;;;;;;1.50;0.90;;;;;;;;;;4974192;28;59163;-71
2023/09/06 07:18:38;;;;;;;0.80;0.80;;;;;;;;;;4974307;28;60379;-70
2023/09/06 07:21:04;;;;;;;1.00;0.90;;;;;;;;;;4974941;28;59486;-72
2023/09/06 07:23:29;;;;;;;0.70;0.70;;;;;;;;;;4974565;28;59161;-71
2023/09/06 07:25:54;;;;;;;0.70;0.70;;;;;;;;;;4974981;28;60167;-71
2023/09/06 07:28:23;;;;;;;0.80;0.80;;;;;;;;;;4971819;28;59392;-71
2023/09/06 07:30:48;;;;;;;1.33;0.85;;;;;;;;;;4972737;28;59315;-72
2023/09/06 07:33:13;;;;;;;0.70;0.70;;;;;;;;;;4973822;28;59398;-74
2023/09/06 07:35:40;;;;;;;1.20;1.20;;;;;;;;;;4971682;28;59075;-76
2023/09/06 07:38:05;;;;;;;0.80;0.80;;;;;;;;;;4973405;28;59273;-75
2023/09/06 07:40:30;;;;;;;0.77;0.77;;;;;;;;;;4973939;28;59676;-76
2023/09/06 07:42:55;;;;;;;0.87;0.63;;;;;;;;;;4971980;28;59242;-75
2023/09/06 07:45:20;;;;;;;1.75;0.80;;;;;;;;;;4970960;28;60979;-71
2023/09/06 07:47:45;;;;;;;0.88;0.88;;;;;;;;;;4969060;28;59643;-70
2023/09/06 07:50:11;;;;;;;0.95;0.85;;;;;;;;;;4972030;28;59177;-70
2023/09/06 07:52:37;;;;;;;1.17;0.80;;;;;;;;;;4969449;28;59516;-71
2023/09/06 07:55:02;;;;;;;1.63;0.93;;;;;;;;;;4971228;28;59493;-73
2023/09/06 07:57:27;;;;;;;0.70;0.68;;;;;;;;;;4968894;28;59382;-71
2023/09/06 07:59:52;;;;;;;0.60;0.60;;;;;;;;;;4972968;28;59324;-70
2023/09/06 08:02:17;;;;;;;0.60;0.60;;;;;;;;;;4970469;28;60168;-69
2023/09/06 08:04:43;;;;;;;1.27;0.80;;;;;;;;;;4970848;28;60982;-70
2023/09/06 08:07:08;;;;;;;0.80;0.80;;;;;;;;;;4970003;28;59265;-71
2023/09/06 08:09:33;;;;;;;0.87;0.87;;;;;;;;;;4970206;28;59236;-74
2023/09/06 08:11:58;;;;;;;0.80;0.80;;;;;;;;;;4973788;28;59962;-72
2023/09/06 08:14:23;;;;;;;0.73;0.57;;;;;;;;;;4970035;28;59902;-70
2023/09/06 08:16:49;;;;;;;1.23;0.73;;;;;;;;;;4971237;28;59519;-70
2023/09/06 08:19:14;;;;;;;0.80;0.80;;;;;;;;;;4971819;28;59442;-70
2023/09/06 08:21:39;;;;;;;0.70;0.70;;;;;;;;;;4970057;28;59193;-72
2023/09/06 08:24:05;;;;;;;0.30;0.30;;;;;;;;;;4970690;28;60247;-72
2023/09/06 08:26:30;;;;;;;0.80;0.80;;;;;;;;;;4967317;28;59209;-70
2023/09/06 08:28:56;;;;;;;1.05;1.00;;;;;;;;;;4970659;28;59253;-70
2023/09/06 08:31:21;;;;;;;0.60;0.60;;;;;;;;;;4971352;28;61369;-71
2023/09/06 08:33:46;;;;;;;0.60;0.60;;;;;;;;;;4973261;28;59400;-70
2023/09/06 08:36:14;;;;;;;0.73;0.60;;;;;;;;;;4969173;28;59555;-70
2023/09/06 08:38:39;;;;;;;0.90;0.82;;;;;;;;;;4967940;28;59450;-70
2023/09/06 08:41:05;;;;;;;0.93;0.93;;;;;;;;;;4971627;28;59964;-73
2023/09/06 08:43:34;;;;;;;0.95;0.85;;;;;;;;;;4972375;28;60238;-72
2023/09/06 08:46:00;;;;;;;0.75;0.57;;;;;;;;;;4976725;28;59185;-71
2023/09/06 08:48:26;;;;;;;0.75;0.75;;;;;;;;;;4973909;28;59522;-70
2023/09/06 08:50:51;;;;;;;0.40;0.40;;;;;;;;;;4972945;28;60081;-70
2023/09/06 08:53:18;;;;;;;0.80;0.80;;;;;;;;;;4974754;28;59199;-75
2023/09/06 08:55:44;;;;;;;0.68;0.60;;;;;;;;;;4974142;28;59212;-75
2023/09/06 08:58:09;;;;;;;0.95;0.70;;;;;;;;;;4978034;28;59290;-75
2023/09/06 09:00:36;;;;;;;0.73;0.70;;;;;;;;;;4975113;28;59417;-75
2023/09/06 09:03:01;;;;;;;0.73;0.67;;;;;;;;;;4973926;28;59230;-77
2023/09/06 09:05:26;;;;;;;0.70;0.70;;;;;;;;;;4972166;28;59218;-76
2023/09/06 09:07:59;;;;;;;0.50;0.50;;;;;;;;;;4970407;28;59435;-75
2023/09/06 09:10:29;;;;;;;0.80;0.80;;;;;;;;;;4973474;28;59383;-75
2023/09/06 09:12:55;;;;;;;0.65;0.50;;;;;;;;;;4974316;28;59387;-75
2023/09/06 09:15:25;;;;;;;0.55;0.55;;;;;;;;;;4974269;28;59418;-75
2023/09/06 09:17:51;;;;;;;0.65;0.65;;;;;;;;;;4976267;28;61372;-75
2023/09/06 09:20:17;;;;;;;0.83;0.80;;;;;;;;;;4974122;28;59236;-76
2023/09/06 09:22:44;;;;;;;0.57;0.57;;;;;;;;;;4974166;28;59287;-75
2023/09/06 09:25:15;;;;;;;0.47;0.47;;;;;;;;;;4973462;28;59507;-76
2023/09/06 09:27:40;;;;;;;0.60;0.60;;;;;;;;;;4972965;28;59195;-75
2023/09/06 09:30:07;;;;;;;0.45;0.45;;;;;;;;;;4970828;28;59350;-75
2023/09/06 09:32:32;;;;;;;0.50;0.50;;;;;;;;;;4969984;28;59351;-76
2023/09/06 09:34:57;;;;;;;0.53;0.53;;;;;;;;;;4975918;28;59092;-76
2023/09/06 09:37:23;;;;;;;0.47;0.47;;;;;;;;;;4973153;28;59509;-75
2023/09/06 09:39:48;;;;;;;0.43;0.43;;;;;;;;;;4973809;28;59856;-75
2023/09/06 09:42:14;;;;;;;0.70;0.70;;;;;;;;;;4974579;28;59117;-75
2023/09/06 09:44:40;;;;;;;0.80;0.60;;;;;;;;;;4974431;28;59313;-75
2023/09/06 09:47:14;;;;;;;0.57;0.55;;;;;;;;;;4974250;28;59457;-76
2023/09/06 09:49:41;;;;;;;0.68;0.68;;;;;;;;;;4974615;28;61251;-75
2023/09/06 09:52:13;;;;;;;0.60;0.60;;;;;;;;;;4976990;28;59360;-75
2023/09/06 09:54:39;;;;;;;0.40;0.40;;;;;;;;;;4972758;28;59237;-70
2023/09/06 09:57:05;;;;;;;0.40;0.40;;;;;;;;;;4976446;28;60277;-71
2023/09/06 09:59:31;;;;;;;0.40;0.40;;;;;;;;;;4968566;28;60013;-71
2023/09/06 10:01:57;;;;;;;0.60;0.60;;;;;;;;;;4973077;28;59337;-71
2023/09/06 10:04:26;;;;;;;0.60;0.50;;;;;;;;;;4977633;28;60063;-71
2023/09/06 10:06:53;;;;;;;0.47;0.47;;;;;;;;;;4972245;28;59895;-71
2023/09/06 10:09:19;;;;;;;0.57;0.50;;;;;;;;;;4971718;28;59173;-71
2023/09/06 10:11:44;;;;;;;0.50;0.50;;;;;;;;;;4974016;28;60019;-72
2023/09/06 10:14:11;;;;;;;0.40;0.40;;;;;;;;;;4972318;28;59224;-70
2023/09/06 10:16:36;;;;;;;0.50;0.50;;;;;;;;;;4973068;28;61490;-70
2023/09/06 10:19:01;;;;;;;0.52;0.50;;;;;;;;;;4972948;28;59482;-70
2023/09/06 10:21:27;;;;;;;0.80;0.80;;;;;;;;;;4973960;28;59445;-73
2023/09/06 10:23:52;;;;;;;0.43;0.43;;;;;;;;;;4972842;28;61450;-73
2023/09/06 10:26:23;;;;;;;0.43;0.43;;;;;;;;;;4977667;28;59239;-70
2023/09/06 10:28:55;;;;;;;0.70;0.50;;;;;;;;;;4975613;28;59274;-71
2023/09/06 10:31:29;;;;;;;0.52;0.52;;;;;;;;;;4970642;28;59311;-71
2023/09/06 10:33:55;;;;;;;0.45;0.45;;;;;;;;;;4975611;28;59251;-70
2023/09/06 10:36:22;;;;;;;0.43;0.43;;;;;;;;;;4969875;28;59355;-69
2023/09/06 10:38:54;;;;;;;0.57;0.55;;;;;;;;;;4970985;28;59206;-70
2023/09/06 10:41:20;;;;;;;0.40;0.40;;;;;;;;;;4971327;28;59401;-72
2023/09/06 10:43:48;;;;;;;1.92;0.60;;;;;;;;;;4973205;28;59532;-71
2023/09/06 10:46:13;;;;;;;0.68;0.68;;;;;;;;;;4973502;28;59158;-71
2023/09/06 10:48:39;;;;;;;0.97;0.57;;;;;;;;;;4973916;28;58510;-72
2023/09/06 10:51:04;;;;;;;0.47;0.47;;;;;;;;;;4973580;28;60529;-71
2023/09/06 10:53:30;;;;;;;0.52;0.52;;;;;;;;;;4972822;28;59534;-71
2023/09/06 10:55:55;;;;;;;0.50;0.50;;;;;;;;;;4972191;28;60429;-72
2023/09/06 10:58:23;;;;;;;0.73;0.57;;;;;;;;;;4972422;28;59276;-72
2023/09/06 11:00:48;;;;;;;;;;;;;;;;;;4974717;28;59397;-70
2023/09/06 11:03:14;;;;;;;0.43;0.43;;;;;;;;;;4975176;28;59459;-74
2023/09/06 11:05:40;;;;;;;0.55;0.40;;;;;;;;;;4969225;28;59307;-71
2023/09/06 11:08:08;;;;;;;0.40;0.40;;;;;;;;;;4969755;28;59434;-70
2023/09/06 11:10:33;;;;;;;0.60;0.55;;;;;;;;;;4970654;28;60129;-74
2023/09/06 11:13:18;;;;;;;0.40;0.40;;;;;;;;;;4971834;28;59458;-69
2023/09/06 11:15:43;;;;;;;0.22;0.22;;;;;;;;;;4974060;28;64490;-76
2023/09/06 11:18:09;;;;;;;0.50;0.50;;;;;;;;;;4972980;28;59242;-75
2023/09/06 11:20:34;;;;;;;0.40;0.40;;;;;;;;;;4975105;28;59097;-74
2023/09/06 11:23:00;;;;;;;0.45;0.45;;;;;;;;;;4970922;28;60136;-75
2023/09/06 11:25:26;;;;;;;0.50;0.50;;;;;;;;;;4970345;28;59311;-74
2023/09/06 11:27:55;;;;;;;0.30;0.30;;;;;;;;;;4970824;28;59189;-75
2023/09/06 11:30:23;;;;;;;0.30;0.30;;;;;;;;;;4970162;28;60213;-75
2023/09/06 11:32:49;;;;;;;0.70;0.50;;;;;;;;;;4970126;28;59495;-75
2023/09/06 11:35:15;;;;;;;0.40;0.38;;;;;;;;;;4974113;28;59540;-76
2023/09/06 11:37:44;;;;;;;0.50;0.43;;;;;;;;;;4967551;28;59367;-76
2023/09/06 11:40:14;;;;;;;0.73;0.70;;;;;;;;;;4969081;28;58470;-76
2023/09/06 11:42:43;;;;;;;0.50;0.40;;;;;;;;;;4970295;28;60292;-75
2023/09/06 11:45:09;;;;;;;0.60;0.60;;;;;;;;;;4967801;28;59209;-75
2023/09/06 11:47:35;;;;;;;0.50;0.50;;;;;;;;;;4967429;28;59292;-75
2023/09/06 11:50:03;;;;;;;0.45;0.45;;;;;;;;;;4970130;28;59543;-75
2023/09/06 11:52:30;;;;;;;0.55;0.55;;;;;;;;;;4970696;28;59371;-75
2023/09/06 11:54:56;;;;;;;0.50;0.40;;;;;;;;;;4968585;28;59211;-76
2023/09/06 11:57:30;;;;;;;0.32;0.32;;;;;;;;;;4969704;28;60206;-75
2023/09/06 11:59:57;;;;;;;0.40;0.38;;;;;;;;;;4967478;28;59370;-76
2023/09/06 12:02:25;;;;;;;0.30;0.30;;;;;;;;;;4968453;28;61490;-75
2023/09/06 12:04:50;;;;;;;;;;;;;;;;;;4967362;28;59333;-76
2023/09/06 12:07:16;;;;;;;0.60;0.60;;;;;;;;;;4968486;28;59146;-76
2023/09/06 12:09:43;;;;;;;0.45;0.45;;;;;;;;;;4964653;28;59870;-75
2023/09/06 12:12:09;;;;;;;0.80;0.50;;;;;;;;;;4966768;28;59213;-74
2023/09/06 12:14:34;;;;;;;0.60;0.60;;;;;;;;;;4971136;28;59361;-71
2023/09/06 12:17:00;;;;;;;0.40;0.40;;;;;;;;;;4971971;28;59588;-70
2023/09/06 12:19:26;;;;;;;0.35;0.35;;;;;;;;;;4976230;28;59189;-71
2023/09/06 12:21:51;;;;;;;0.40;0.40;;;;;;;;;;4965184;28;60262;-71
2023/09/06 12:24:16;;;;;;;0.38;0.38;;;;;;;;;;4967717;28;59116;-75
2023/09/06 12:26:41;;;;;;;0.40;0.40;;;;;;;;;;4968801;28;58699;-75
2023/09/06 12:29:06;;;;;;;0.47;0.47;;;;;;;;;;4970663;28;59385;-76
2023/09/06 12:31:32;;;;;;;0.40;0.40;;;;;;;;;;4968545;28;59427;-75
2023/09/06 12:33:57;;;;;;;0.67;0.50;;;;;;;;;;4969489;28;59373;-75
2023/09/06 12:36:22;;;;;;;0.53;0.53;;;;;;;;;;4967336;28;60353;-75
2023/09/06 12:38:47;;;;;;;0.50;0.40;;;;;;;;;;4965664;28;60347;-74
2023/09/06 12:41:13;;;;;;;0.40;0.40;;;;;;;;;;4962245;28;59259;-75
2023/09/06 12:43:38;;;;;;;0.30;0.30;;;;;;;;;;4975539;28;59279;-76
2023/09/06 12:46:06;;;;;;;0.32;0.32;;;;;;;;;;4971275;28;59272;-76
2023/09/06 12:48:31;;;;;;;;;;;;;;;;;;4967579;28;60378;-75
2023/09/06 12:50:56;;;;;;;1.05;0.45;;;;;;;;;;4967132;28;59441;-74
2023/09/06 12:53:21;;;;;;;0.40;0.40;;;;;;;;;;4966025;28;59292;-75
2023/09/06 12:55:47;;;;;;;0.55;0.55;;;;;;;;;;4970355;28;59423;-76
2023/09/06 12:58:13;;;;;;;0.47;0.40;;;;;;;;;;4967704;28;59160;-76
2023/09/06 13:00:38;;;;;;;0.52;0.52;;;;;;;;;;4969357;28;59441;-76
2023/09/06 13:03:03;;;;;;;0.50;0.50;;;;;;;;;;4968655;28;59112;-75
2023/09/06 13:05:30;;;;;;;1.80;0.60;;;;;;;;;;4969153;28;59167;-75
2023/09/06 13:07:55;;;;;;;0.50;0.50;;;;;;;;;;4975310;28;60379;-76
2023/09/06 13:10:21;;;;;;;0.33;0.33;;;;;;;;;;4969259;28;59805;-76
2023/09/06 13:12:46;;;;;;;0.60;0.60;;;;;;;;;;4974072;28;59196;-75
2023/09/06 13:15:11;;;;;;;0.33;0.33;;;;;;;;;;4975142;28;59443;-75
2023/09/06 13:17:36;;;;;;;0.83;0.73;;;;;;;;;;4973400;28;59222;-75
2023/09/06 13:20:04;;;;;;;0.50;0.50;;;;;;;;;;4974858;28;59087;-75
2023/09/06 13:22:29;;;;;;;0.70;0.52;;;;;;;;;;4974072;28;60409;-75
2023/09/06 13:24:54;;;;;;;0.60;0.60;;;;;;;;;;4969355;28;59196;-73
2023/09/06 13:27:20;;;;;;;0.37;0.33;;;;;;;;;;4965600;28;59291;-71
2023/09/06 13:29:45;;;;;;;0.40;0.40;;;;;;;;;;4969365;28;59640;-72
2023/09/06 13:32:10;;;;;;;0.30;0.30;;;;;;;;;;4976750;28;59153;-71
2023/09/06 13:34:38;;;;;;;0.40;0.40;;;;;;;;;;4970227;28;59629;-75
2023/09/06 13:37:04;;;;;;;0.50;0.50;;;;;;;;;;4971352;28;59482;-75
2023/09/06 13:39:30;;;;;;;1.98;0.40;;;;;;;;;;4972857;28;59310;-75
2023/09/06 13:41:55;;;;;;;1.00;1.00;;;;;;;;;;4974175;28;59284;-76
2023/09/06 13:44:21;;;;;;;0.32;0.32;;;;;;;;;;4966213;28;59329;-76
2023/09/06 13:46:47;;;;;;;0.37;0.37;;;;;;;;;;4972007;28;59368;-75
2023/09/06 13:49:13;;;;;;;0.40;0.40;;;;;;;;;;4970619;28;59455;-75
2023/09/06 13:51:38;;;;;;;0.60;0.60;;;;;;;;;;4973375;28;59223;-76
2023/09/06 13:54:05;;;;;;;0.30;0.30;;;;;;;;;;4971883;28;61403;-75
2023/09/06 13:56:30;;;;;;;0.47;0.47;;;;;;;;;;4968254;28;59351;-75
2023/09/06 13:58:55;;;;;;;0.38;0.38;;;;;;;;;;4972573;28;59264;-75
2023/09/06 14:01:21;;;;;;;0.60;0.40;;;;;;;;;;4967367;28;60340;-75
2023/09/06 14:03:46;;;;;;;0.60;0.40;;;;;;;;;;4974554;28;59293;-75
2023/09/06 14:06:11;;;;;;;0.82;0.82;;;;;;;;;;4969345;28;59369;-76
2023/09/06 14:08:36;;;;;;;0.43;0.43;;;;;;;;;;4966891;28;59320;-75
2023/09/06 14:11:03;;;;;;;0.30;0.30;;;;;;;;;;4973063;28;59218;-76
2023/09/06 14:13:28;;;;;;;0.75;0.55;;;;;;;;;;4970413;28;59340;-75
2023/09/06 14:15:53;;;;;;;0.50;0.47;;;;;;;;;;4966301;28;59387;-75
2023/09/06 14:18:19;;;;;;;0.40;0.40;;;;;;;;;;4971140;28;59278;-75
2023/09/06 14:20:44;;;;;;;2.13;0.40;;;;;;;;;;4966887;28;59713;-73
2023/09/06 14:23:09;;;;;;;1.90;0.77;;;;;;;;;;4965880;28;59176;-76
2023/09/06 14:25:35;;;;;;;1.23;0.67;;;;;;;;;;4966507;28;59216;-72
2023/09/06 14:28:00;;;;;;;0.70;0.50;;;;;;;;;;4974655;28;60362;-70
2023/09/06 14:30:25;;;;;;;1.00;0.68;;;;;;;;;;4969921;28;58484;-72
2023/09/06 14:32:51;;;;;;;2.20;0.80;;;;;;;;;;4969592;28;59182;-73
2023/09/06 14:35:16;;;;;;;1.10;0.63;;;;;;;;;;4967267;28;59352;-71
2023/09/06 14:37:41;;;;;;;0.50;0.50;;;;;;;;;;4970581;28;59366;-70
2023/09/06 14:40:06;;;;;;;2.58;0.65;;;;;;;;;;4971931;28;59360;-74